Archival Weather

Centro Met. Antartico Pdte. E

Centro Met. Antartico Pdte. E, Antarctica (SCRM)

Report from: Thursday, September 21, 2023 9:00 AM UTC
Current time: Friday, February 23, 2024 7:08 PM UTC

Current weather – Weather history – Daily summaries
Weather forecast

Temperature-7.0°C (19.4°F)
Wind chill-15.0°C (5.0°F)
Dew point-11.0°C (12.2°F)
Winds 14 kts (7.2 m/s, 16.1 mph) West-Southwest (250°)
Visibility6.2 mi. (10 km)
Clouds Ceiling: Overcast 1,600 ft. (488 m)
Altimeter29.29 in.Hg (992 mB)
Relative humidity73 %
Density altitude-1,950 ft. (-595 m)
Remarks No significant changes expected in the next two hours
Flight conditions Marginal Visual Meteorological Conditions
Raw dataSCRM 210900Z 25014KT 9999 OVC016 M07/M11 Q0992 NOSIG
An error has occurred. This application may no longer respond until reloaded. Reload 🗙